sensor_id;sensor_type;location;lat;lon;timestamp;pressure;altitude;pressure_sealevel;temperature;humidity
69405;BME280;57084;52.046;5.632;2022-09-12T00:00:00;101690;;;18.2;64.7
69405;BME280;57084;52.046;5.632;2022-09-12T00:01:02;101690;;;18.2;64.7
69405;BME280;57084;52.046;5.632;2022-09-12T00:02:00;101690;;;18.2;64.8
69405;BME280;57084;52.046;5.632;2022-09-12T00:03:00;101690;;;18.2;64.8
69405;BME280;57084;52.046;5.632;2022-09-12T00:04:00;101690;;;18.2;64.8
69405;BME280;57084;52.046;5.632;2022-09-12T00:05:00;101690;;;18.2;64.8
69405;BME280;57084;52.046;5.632;2022-09-12T00:06:00;101700;;;18.1;64.9
69405;BME280;57084;52.046;5.632;2022-09-12T00:07:00;101700;;;18.1;64.9
69405;BME280;57084;52.046;5.632;2022-09-12T00:08:00;101690;;;18.1;64.8
69405;BME280;57084;52.046;5.632;2022-09-12T00:09:00;101690;;;18.1;64.8
69405;BME280;57084;52.046;5.632;2022-09-12T00:10:00;101690;;;18.1;64.8
69405;BME280;57084;52.046;5.632;2022-09-12T00:11:02;101690;;;18.1;64.8
69405;BME280;57084;52.046;5.632;2022-09-12T00:12:00;101690;;;18.1;64.9
69405;BME280;57084;52.046;5.632;2022-09-12T00:13:00;101690;;;18.1;64.9
69405;BME280;57084;52.046;5.632;2022-09-12T00:14:00;101690;;;18.1;64.8
69405;BME280;57084;52.046;5.632;2022-09-12T00:15:00;101690;;;18.1;64.8
69405;BME280;57084;52.046;5.632;2022-09-12T00:16:00;101690;;;18.0;64.8
69405;BME280;57084;52.046;5.632;2022-09-12T00:17:00;101690;;;18.0;64.8
69405;BME280;57084;52.046;5.632;2022-09-12T00:18:00;101680;;;18.0;64.8
69405;BME280;57084;52.046;5.632;2022-09-12T00:19:00;101680;;;18.0;64.8
69405;BME280;57084;52.046;5.632;2022-09-12T00:20:00;101680;;;18.0;64.8
69405;BME280;57084;52.046;5.632;2022-09-12T00:21:00;101680;;;18.0;64.8
69405;BME280;57084;52.046;5.632;2022-09-12T00:22:00;101680;;;18.0;64.9
69405;BME280;57084;52.046;5.632;2022-09-12T00:23:00;101680;;;18.0;64.9
69405;BME280;57084;52.046;5.632;2022-09-12T00:24:00;101680;;;18.0;64.8
69405;BME280;57084;52.046;5.632;2022-09-12T00:25:00;101680;;;18.0;64.8
69405;BME280;57084;52.046;5.632;2022-09-12T00:26:02;101680;;;18.0;64.9
69405;BME280;57084;52.046;5.632;2022-09-12T00:27:00;101680;;;18.0;64.9
69405;BME280;57084;52.046;5.632;2022-09-12T00:28:00;101680;;;18.0;64.9
69405;BME280;57084;52.046;5.632;2022-09-12T00:29:00;101680;;;18.0;64.9
69405;BME280;57084;52.046;5.632;2022-09-12T00:30:00;101670;;;18.0;64.8
69405;BME280;57084;52.046;5.632;2022-09-12T00:31:02;101670;;;18.0;64.8
69405;BME280;57084;52.046;5.632;2022-09-12T00:32:00;101680;;;17.9;64.9
69405;BME280;57084;52.046;5.632;2022-09-12T00:33:00;101680;;;17.9;64.9
69405;BME280;57084;52.046;5.632;2022-09-12T00:34:00;101680;;;17.9;64.9
69405;BME280;57084;52.046;5.632;2022-09-12T00:35:00;101680;;;17.9;64.9
69405;BME280;57084;52.046;5.632;2022-09-12T00:36:02;101680;;;17.9;64.9
69405;BME280;57084;52.046;5.632;2022-09-12T00:37:00;101680;;;17.9;64.9
69405;BME280;57084;52.046;5.632;2022-09-12T00:38:00;101670;;;17.9;64.9
69405;BME280;57084;52.046;5.632;2022-09-12T00:39:00;101670;;;17.9;64.9
69405;BME280;57084;52.046;5.632;2022-09-12T00:40:00;101660;;;17.9;64.9
69405;BME280;57084;52.046;5.632;2022-09-12T00:41:00;101660;;;17.9;64.9
69405;BME280;57084;52.046;5.632;2022-09-12T00:42:00;101660;;;17.9;65.0
69405;BME280;57084;52.046;5.632;2022-09-12T00:43:00;101660;;;17.9;65.0
69405;BME280;57084;52.046;5.632;2022-09-12T00:44:00;101650;;;17.9;64.9
69405;BME280;57084;52.046;5.632;2022-09-12T00:45:00;101650;;;17.9;64.9
69405;BME280;57084;52.046;5.632;2022-09-12T00:46:00;101650;;;17.9;64.9
69405;BME280;57084;52.046;5.632;2022-09-12T00:47:01;101650;;;17.9;64.9
69405;BME280;57084;52.046;5.632;2022-09-12T00:48:00;101650;;;17.9;65.0
69405;BME280;57084;52.046;5.632;2022-09-12T00:49:00;101650;;;17.9;65.0
69405;BME280;57084;52.046;5.632;2022-09-12T00:50:02;101650;;;17.8;64.9
69405;BME280;57084;52.046;5.632;2022-09-12T00:51:00;101650;;;17.8;64.9
69405;BME280;57084;52.046;5.632;2022-09-12T00:52:00;101650;;;17.8;65.0
69405;BME280;57084;52.046;5.632;2022-09-12T00:53:02;101650;;;17.8;65.0
69405;BME280;57084;52.046;5.632;2022-09-12T00:54:02;101640;;;17.8;65.0
69405;BME280;57084;52.046;5.632;2022-09-12T00:55:00;101640;;;17.8;65.0
69405;BME280;57084;52.046;5.632;2022-09-12T00:56:00;101640;;;17.8;65.0
69405;BME280;57084;52.046;5.632;2022-09-12T00:57:00;101640;;;17.8;65.0
69405;BME280;57084;52.046;5.632;2022-09-12T00:58:00;101640;;;17.8;65.1
69405;BME280;57084;52.046;5.632;2022-09-12T00:59:00;101640;;;17.8;65.1
69405;BME280;57084;52.046;5.632;2022-09-12T01:00:00;101640;;;17.8;65.1
69405;BME280;57084;52.046;5.632;2022-09-12T01:01:00;101640;;;17.8;65.1
69405;BME280;57084;52.046;5.632;2022-09-12T01:02:00;101640;;;17.8;65.2
69405;BME280;57084;52.046;5.632;2022-09-12T01:03:01;101640;;;17.8;65.2
69405;BME280;57084;52.046;5.632;2022-09-12T01:04:00;101650;;;17.8;65.1
69405;BME280;57084;52.046;5.632;2022-09-12T01:05:00;101650;;;17.8;65.1
69405;BME280;57084;52.046;5.632;2022-09-12T01:06:01;101640;;;17.8;65.1
69405;BME280;57084;52.046;5.632;2022-09-12T01:07:00;101640;;;17.8;65.1
69405;BME280;57084;52.046;5.632;2022-09-12T01:08:00;101650;;;17.8;65.2
69405;BME280;57084;52.046;5.632;2022-09-12T01:09:00;101650;;;17.8;65.2
69405;BME280;57084;52.046;5.632;2022-09-12T01:10:00;101640;;;17.8;65.1
69405;BME280;57084;52.046;5.632;2022-09-12T01:11:00;101640;;;17.8;65.1
69405;BME280;57084;52.046;5.632;2022-09-12T01:12:00;101640;;;17.7;65.3
69405;BME280;57084;52.046;5.632;2022-09-12T01:13:00;101640;;;17.7;65.3
69405;BME280;57084;52.046;5.632;2022-09-12T01:14:00;101640;;;17.7;65.2
69405;BME280;57084;52.046;5.632;2022-09-12T01:15:00;101640;;;17.7;65.2
69405;BME280;57084;52.046;5.632;2022-09-12T01:16:01;101640;;;17.7;65.1
69405;BME280;57084;52.046;5.632;2022-09-12T01:17:00;101640;;;17.7;65.1
69405;BME280;57084;52.046;5.632;2022-09-12T01:18:05;101640;;;17.7;65.2
69405;BME280;57084;52.046;5.632;2022-09-12T01:19:02;101640;;;17.7;65.2
69405;BME280;57084;52.046;5.632;2022-09-12T01:21:03;101640;;;17.7;65.2
69405;BME280;57084;52.046;5.632;2022-09-12T01:22:03;101630;;;17.7;65.3
69405;BME280;57084;52.046;5.632;2022-09-12T01:23:22;101630;;;17.7;65.3
69405;BME280;57084;52.046;5.632;2022-09-12T01:24:06;101630;;;17.7;65.2
69405;BME280;57084;52.046;5.632;2022-09-12T01:25:02;101630;;;17.7;65.2
69405;BME280;57084;52.046;5.632;2022-09-12T01:26:02;101630;;;17.7;65.2
69405;BME280;57084;52.046;5.632;2022-09-12T01:27:07;101630;;;17.7;65.2
69405;BME280;57084;52.046;5.632;2022-09-12T01:28:08;101630;;;17.7;65.3
69405;BME280;57084;52.046;5.632;2022-09-12T01:29:04;101630;;;17.7;65.3
69405;BME280;57084;52.046;5.632;2022-09-12T01:30:03;101630;;;17.7;65.2
69405;BME280;57084;52.046;5.632;2022-09-12T01:31:00;101630;;;17.7;65.2
69405;BME280;57084;52.046;5.632;2022-09-12T01:32:01;101620;;;17.6;65.3
69405;BME280;57084;52.046;5.632;2022-09-12T01:33:05;101620;;;17.6;65.3
69405;BME280;57084;52.046;5.632;2022-09-12T01:34:03;101620;;;17.6;65.3
69405;BME280;57084;52.046;5.632;2022-09-12T01:35:01;101620;;;17.6;65.3
69405;BME280;57084;52.046;5.632;2022-09-12T01:36:04;101620;;;17.6;65.2
69405;BME280;57084;52.046;5.632;2022-09-12T01:37:01;101620;;;17.6;65.2
69405;BME280;57084;52.046;5.632;2022-09-12T01:38:03;101620;;;17.6;65.4
69405;BME280;57084;52.046;5.632;2022-09-12T01:39:01;101620;;;17.6;65.4
69405;BME280;57084;52.046;5.632;2022-09-12T01:40:01;101620;;;17.6;65.3
69405;BME280;57084;52.046;5.632;2022-09-12T01:41:01;101620;;;17.6;65.3
69405;BME280;57084;52.046;5.632;2022-09-12T01:42:03;101620;;;17.6;65.4
69405;BME280;57084;52.046;5.632;2022-09-12T01:43:02;101620;;;17.6;65.4
69405;BME280;57084;52.046;5.632;2022-09-12T01:44:01;101620;;;17.6;65.4
69405;BME280;57084;52.046;5.632;2022-09-12T01:45:02;101620;;;17.6;65.4
69405;BME280;57084;52.046;5.632;2022-09-12T01:46:02;101620;;;17.6;65.3
69405;BME280;57084;52.046;5.632;2022-09-12T01:47:01;101620;;;17.6;65.3
69405;BME280;57084;52.046;5.632;2022-09-12T01:48:01;101620;;;17.5;65.4
69405;BME280;57084;52.046;5.632;2022-09-12T01:49:00;101620;;;17.5;65.4
69405;BME280;57084;52.046;5.632;2022-09-12T01:50:00;101610;;;17.5;65.4
69405;BME280;57084;52.046;5.632;2022-09-12T01:51:02;101610;;;17.5;65.4
69405;BME280;57084;52.046;5.632;2022-09-12T01:52:02;101610;;;17.5;65.5
69405;BME280;57084;52.046;5.632;2022-09-12T01:53:00;101610;;;17.5;65.5
69405;BME280;57084;52.046;5.632;2022-09-12T01:54:01;101610;;;17.5;65.4
69405;BME280;57084;52.046;5.632;2022-09-12T01:55:00;101610;;;17.5;65.4
69405;BME280;57084;52.046;5.632;2022-09-12T01:56:01;101610;;;17.5;65.4
69405;BME280;57084;52.046;5.632;2022-09-12T01:57:00;101610;;;17.5;65.4
69405;BME280;57084;52.046;5.632;2022-09-12T01:58:02;101610;;;17.5;65.5
69405;BME280;57084;52.046;5.632;2022-09-12T01:59:01;101610;;;17.5;65.5
69405;BME280;57084;52.046;5.632;2022-09-12T02:00:00;101600;;;17.5;65.4
69405;BME280;57084;52.046;5.632;2022-09-12T02:01:01;101600;;;17.5;65.4
69405;BME280;57084;52.046;5.632;2022-09-12T02:02:01;101600;;;17.4;65.5
69405;BME280;57084;52.046;5.632;2022-09-12T02:03:00;101600;;;17.4;65.5
69405;BME280;57084;52.046;5.632;2022-09-12T02:04:02;101600;;;17.4;65.5
69405;BME280;57084;52.046;5.632;2022-09-12T02:05:01;101600;;;17.4;65.5
69405;BME280;57084;52.046;5.632;2022-09-12T02:06:00;101590;;;17.4;65.5
69405;BME280;57084;52.046;5.632;2022-09-12T02:07:01;101590;;;17.4;65.5
69405;BME280;57084;52.046;5.632;2022-09-12T02:08:00;101590;;;17.4;65.5
69405;BME280;57084;52.046;5.632;2022-09-12T02:09:00;101590;;;17.4;65.5
69405;BME280;57084;52.046;5.632;2022-09-12T02:10:02;101590;;;17.4;65.5
69405;BME280;57084;52.046;5.632;2022-09-12T02:11:00;101590;;;17.4;65.5
69405;BME280;57084;52.046;5.632;2022-09-12T02:12:00;101590;;;17.4;65.6
69405;BME280;57084;52.046;5.632;2022-09-12T02:13:00;101590;;;17.4;65.6
69405;BME280;57084;52.046;5.632;2022-09-12T02:14:00;101580;;;17.4;65.6
69405;BME280;57084;52.046;5.632;2022-09-12T02:15:00;101580;;;17.4;65.6
69405;BME280;57084;52.046;5.632;2022-09-12T02:16:01;101580;;;17.3;65.5
69405;BME280;57084;52.046;5.632;2022-09-12T02:17:02;101580;;;17.3;65.5
69405;BME280;57084;52.046;5.632;2022-09-12T02:18:00;101590;;;17.3;65.6
69405;BME280;57084;52.046;5.632;2022-09-12T02:19:02;101590;;;17.3;65.6
69405;BME280;57084;52.046;5.632;2022-09-12T02:20:01;101590;;;17.3;65.6
69405;BME280;57084;52.046;5.632;2022-09-12T02:21:00;101590;;;17.3;65.6
69405;BME280;57084;52.046;5.632;2022-09-12T02:22:00;101580;;;17.3;65.6
69405;BME280;57084;52.046;5.632;2022-09-12T02:23:00;101580;;;17.3;65.6
69405;BME280;57084;52.046;5.632;2022-09-12T02:24:01;101580;;;17.3;65.6
69405;BME280;57084;52.046;5.632;2022-09-12T02:25:00;101580;;;17.3;65.6
69405;BME280;57084;52.046;5.632;2022-09-12T02:26:00;101580;;;17.3;65.6
69405;BME280;57084;52.046;5.632;2022-09-12T02:27:02;101580;;;17.3;65.6
69405;BME280;57084;52.046;5.632;2022-09-12T02:28:00;101580;;;17.2;65.7
69405;BME280;57084;52.046;5.632;2022-09-12T02:29:00;101580;;;17.2;65.7
69405;BME280;57084;52.046;5.632;2022-09-12T02:30:00;101580;;;17.2;65.6
69405;BME280;57084;52.046;5.632;2022-09-12T02:31:11;101580;;;17.2;65.6
69405;BME280;57084;52.046;5.632;2022-09-12T02:32:01;101590;;;17.2;65.6
69405;BME280;57084;52.046;5.632;2022-09-12T02:33:00;101590;;;17.2;65.6
69405;BME280;57084;52.046;5.632;2022-09-12T02:34:04;101580;;;17.2;65.7
69405;BME280;57084;52.046;5.632;2022-09-12T02:35:00;101580;;;17.2;65.7
69405;BME280;57084;52.046;5.632;2022-09-12T02:36:01;101580;;;17.2;65.6
69405;BME280;57084;52.046;5.632;2022-09-12T02:37:02;101580;;;17.2;65.6
69405;BME280;57084;52.046;5.632;2022-09-12T02:38:01;101580;;;17.2;65.7
69405;BME280;57084;52.046;5.632;2022-09-12T02:39:00;101580;;;17.2;65.7
69405;BME280;57084;52.046;5.632;2022-09-12T02:40:00;101580;;;17.2;65.7
69405;BME280;57084;52.046;5.632;2022-09-12T02:41:00;101580;;;17.2;65.7
69405;BME280;57084;52.046;5.632;2022-09-12T02:42:00;101580;;;17.2;65.6
69405;BME280;57084;52.046;5.632;2022-09-12T02:43:00;101580;;;17.2;65.6
69405;BME280;57084;52.046;5.632;2022-09-12T02:44:00;101580;;;17.1;65.7
69405;BME280;57084;52.046;5.632;2022-09-12T02:45:00;101580;;;17.1;65.7
69405;BME280;57084;52.046;5.632;2022-09-12T02:46:00;101580;;;17.1;65.7
69405;BME280;57084;52.046;5.632;2022-09-12T02:47:01;101580;;;17.1;65.7
69405;BME280;57084;52.046;5.632;2022-09-12T02:48:01;101570;;;17.1;65.7
69405;BME280;57084;52.046;5.632;2022-09-12T02:49:00;101570;;;17.1;65.7
69405;BME280;57084;52.046;5.632;2022-09-12T02:50:00;101570;;;17.1;65.7
69405;BME280;57084;52.046;5.632;2022-09-12T02:51:00;101570;;;17.1;65.7
69405;BME280;57084;52.046;5.632;2022-09-12T02:52:00;101570;;;17.1;65.7
69405;BME280;57084;52.046;5.632;2022-09-12T02:53:00;101570;;;17.1;65.7
69405;BME280;57084;52.046;5.632;2022-09-12T02:54:00;101570;;;17.1;65.7
69405;BME280;57084;52.046;5.632;2022-09-12T02:55:00;101570;;;17.1;65.7
69405;BME280;57084;52.046;5.632;2022-09-12T02:56:00;101570;;;17.1;65.7
69405;BME280;57084;52.046;5.632;2022-09-12T02:57:00;101570;;;17.1;65.7
69405;BME280;57084;52.046;5.632;2022-09-12T02:58:00;101560;;;17.0;65.8
69405;BME280;57084;52.046;5.632;2022-09-12T02:59:01;101560;;;17.0;65.8
69405;BME280;57084;52.046;5.632;2022-09-12T03:00:00;101560;;;17.0;65.8
69405;BME280;57084;52.046;5.632;2022-09-12T03:01:02;101560;;;17.0;65.8
69405;BME280;57084;52.046;5.632;2022-09-12T03:02:03;101560;;;17.0;65.7
69405;BME280;57084;52.046;5.632;2022-09-12T03:03:05;101560;;;17.0;65.7
69405;BME280;57084;52.046;5.632;2022-09-12T03:04:09;101560;;;17.0;65.8
69405;BME280;57084;52.046;5.632;2022-09-12T03:05:07;101560;;;17.0;65.8
69405;BME280;57084;52.046;5.632;2022-09-12T03:06:00;101560;;;17.0;65.7
69405;BME280;57084;52.046;5.632;2022-09-12T03:07:02;101560;;;17.0;65.7
69405;BME280;57084;52.046;5.632;2022-09-12T03:08:05;101550;;;16.9;65.8
69405;BME280;57084;52.046;5.632;2022-09-12T03:09:02;101550;;;16.9;65.8
69405;BME280;57084;52.046;5.632;2022-09-12T03:10:01;101550;;;17.0;65.7
69405;BME280;57084;52.046;5.632;2022-09-12T03:11:05;101550;;;17.0;65.7
69405;BME280;57084;52.046;5.632;2022-09-12T03:12:01;101560;;;17.0;65.6
69405;BME280;57084;52.046;5.632;2022-09-12T03:13:02;101560;;;17.0;65.6
69405;BME280;57084;52.046;5.632;2022-09-12T03:14:03;101550;;;16.9;65.7
69405;BME280;57084;52.046;5.632;2022-09-12T03:15:05;101550;;;16.9;65.7
69405;BME280;57084;52.046;5.632;2022-09-12T03:16:02;101550;;;16.9;65.7
69405;BME280;57084;52.046;5.632;2022-09-12T03:17:02;101550;;;16.9;65.7
69405;BME280;57084;52.046;5.632;2022-09-12T03:18:03;101550;;;16.9;65.8
69405;BME280;57084;52.046;5.632;2022-09-12T03:19:02;101550;;;16.9;65.8
69405;BME280;57084;52.046;5.632;2022-09-12T03:20:00;101540;;;16.9;65.7
69405;BME280;57084;52.046;5.632;2022-09-12T03:21:01;101540;;;16.9;65.7
69405;BME280;57084;52.046;5.632;2022-09-12T03:22:02;101550;;;16.9;65.7
69405;BME280;57084;52.046;5.632;2022-09-12T03:23:01;101550;;;16.9;65.7
69405;BME280;57084;52.046;5.632;2022-09-12T03:24:04;101540;;;16.9;65.8
69405;BME280;57084;52.046;5.632;2022-09-12T03:25:02;101540;;;16.9;65.8
69405;BME280;57084;52.046;5.632;2022-09-12T03:26:00;101540;;;16.9;65.8
69405;BME280;57084;52.046;5.632;2022-09-12T03:27:01;101540;;;16.9;65.8
69405;BME280;57084;52.046;5.632;2022-09-12T03:28:01;101540;;;16.8;65.8
69405;BME280;57084;52.046;5.632;2022-09-12T03:29:00;101540;;;16.8;65.8
69405;BME280;57084;52.046;5.632;2022-09-12T03:30:00;101540;;;16.8;65.8
69405;BME280;57084;52.046;5.632;2022-09-12T03:31:00;101540;;;16.8;65.8
69405;BME280;57084;52.046;5.632;2022-09-12T03:32:00;101540;;;16.8;65.8
69405;BME280;57084;52.046;5.632;2022-09-12T03:33:00;101540;;;16.8;65.8
69405;BME280;57084;52.046;5.632;2022-09-12T03:34:00;101530;;;16.8;65.8
69405;BME280;57084;52.046;5.632;2022-09-12T03:35:00;101530;;;16.8;65.8
69405;BME280;57084;52.046;5.632;2022-09-12T03:36:00;101540;;;16.8;65.8
69405;BME280;57084;52.046;5.632;2022-09-12T03:37:00;101540;;;16.8;65.8
69405;BME280;57084;52.046;5.632;2022-09-12T03:38:00;101540;;;16.8;65.9
69405;BME280;57084;52.046;5.632;2022-09-12T03:39:00;101540;;;16.8;65.9
69405;BME280;57084;52.046;5.632;2022-09-12T03:40:00;101540;;;16.8;65.9
69405;BME280;57084;52.046;5.632;2022-09-12T03:41:00;101540;;;16.8;65.9
69405;BME280;57084;52.046;5.632;2022-09-12T03:42:00;101530;;;16.8;65.8
69405;BME280;57084;52.046;5.632;2022-09-12T03:43:00;101530;;;16.8;65.8
69405;BME280;57084;52.046;5.632;2022-09-12T03:44:00;101540;;;16.8;65.9
69405;BME280;57084;52.046;5.632;2022-09-12T03:45:00;101540;;;16.8;65.9
69405;BME280;57084;52.046;5.632;2022-09-12T03:46:00;101540;;;16.8;65.9
69405;BME280;57084;52.046;5.632;2022-09-12T03:47:00;101540;;;16.8;65.9
69405;BME280;57084;52.046;5.632;2022-09-12T03:48:00;101530;;;16.7;65.9
69405;BME280;57084;52.046;5.632;2022-09-12T03:49:00;101530;;;16.7;65.9
69405;BME280;57084;52.046;5.632;2022-09-12T03:50:00;101530;;;16.7;65.9
69405;BME280;57084;52.046;5.632;2022-09-12T03:51:00;101530;;;16.7;65.9
69405;BME280;57084;52.046;5.632;2022-09-12T03:52:00;101530;;;16.7;65.9
69405;BME280;57084;52.046;5.632;2022-09-12T03:53:00;101530;;;16.7;65.9
69405;BME280;57084;52.046;5.632;2022-09-12T03:54:00;101530;;;16.7;66.0
69405;BME280;57084;52.046;5.632;2022-09-12T03:55:00;101530;;;16.7;66.0
69405;BME280;57084;52.046;5.632;2022-09-12T03:56:04;101540;;;16.7;65.9
69405;BME280;57084;52.046;5.632;2022-09-12T03:57:00;101540;;;16.7;65.9
69405;BME280;57084;52.046;5.632;2022-09-12T03:58:00;101530;;;16.7;66.0
69405;BME280;57084;52.046;5.632;2022-09-12T03:59:00;101530;;;16.7;66.0
69405;BME280;57084;52.046;5.632;2022-09-12T04:00:00;101530;;;16.7;66.0
69405;BME280;57084;52.046;5.632;2022-09-12T04:01:00;101530;;;16.7;66.0
69405;BME280;57084;52.046;5.632;2022-09-12T04:02:00;101530;;;16.7;65.9
69405;BME280;57084;52.046;5.632;2022-09-12T04:03:00;101530;;;16.7;65.9
69405;BME280;57084;52.046;5.632;2022-09-12T04:04:00;101530;;;16.7;66.0
69405;BME280;57084;52.046;5.632;2022-09-12T04:05:00;101530;;;16.7;66.0
69405;BME280;57084;52.046;5.632;2022-09-12T04:06:00;101530;;;16.7;66.0
69405;BME280;57084;52.046;5.632;2022-09-12T04:07:00;101530;;;16.7;66.0
69405;BME280;57084;52.046;5.632;2022-09-12T04:08:00;101530;;;16.7;66.1
69405;BME280;57084;52.046;5.632;2022-09-12T04:09:00;101530;;;16.7;66.1
69405;BME280;57084;52.046;5.632;2022-09-12T04:10:00;101530;;;16.7;66.1
69405;BME280;57084;52.046;5.632;2022-09-12T04:11:01;101530;;;16.7;66.1
69405;BME280;57084;52.046;5.632;2022-09-12T04:12:00;101520;;;16.6;66.0
69405;BME280;57084;52.046;5.632;2022-09-12T04:13:00;101520;;;16.6;66.0
69405;BME280;57084;52.046;5.632;2022-09-12T04:14:00;101520;;;16.6;66.1
69405;BME280;57084;52.046;5.632;2022-09-12T04:15:00;101520;;;16.6;66.1
69405;BME280;57084;52.046;5.632;2022-09-12T04:16:00;101520;;;16.6;66.1
69405;BME280;57084;52.046;5.632;2022-09-12T04:17:00;101520;;;16.6;66.1
69405;BME280;57084;52.046;5.632;2022-09-12T04:18:00;101520;;;16.6;66.2
69405;BME280;57084;52.046;5.632;2022-09-12T04:19:00;101520;;;16.6;66.2
69405;BME280;57084;52.046;5.632;2022-09-12T04:20:00;101520;;;16.6;66.2
69405;BME280;57084;52.046;5.632;2022-09-12T04:21:02;101520;;;16.6;66.2
69405;BME280;57084;52.046;5.632;2022-09-12T04:22:00;101520;;;16.6;66.1
69405;BME280;57084;52.046;5.632;2022-09-12T04:23:00;101520;;;16.6;66.1
69405;BME280;57084;52.046;5.632;2022-09-12T04:24:00;101520;;;16.6;66.2
69405;BME280;57084;52.046;5.632;2022-09-12T04:25:00;101520;;;16.6;66.2
69405;BME280;57084;52.046;5.632;2022-09-12T04:26:01;101520;;;16.6;66.2
69405;BME280;57084;52.046;5.632;2022-09-12T04:27:00;101520;;;16.6;66.2
69405;BME280;57084;52.046;5.632;2022-09-12T04:28:00;101510;;;16.6;66.3
69405;BME280;57084;52.046;5.632;2022-09-12T04:29:00;101510;;;16.6;66.3
69405;BME280;57084;52.046;5.632;2022-09-12T04:30:00;101520;;;16.6;66.3
69405;BME280;57084;52.046;5.632;2022-09-12T04:31:00;101520;;;16.6;66.3
69405;BME280;57084;52.046;5.632;2022-09-12T04:32:00;101520;;;16.6;66.2
69405;BME280;57084;52.046;5.632;2022-09-12T04:33:00;101520;;;16.6;66.2
69405;BME280;57084;52.046;5.632;2022-09-12T04:34:00;101520;;;16.6;66.3
69405;BME280;57084;52.046;5.632;2022-09-12T04:35:00;101520;;;16.6;66.3
69405;BME280;57084;52.046;5.632;2022-09-12T04:36:03;101520;;;16.6;66.3
69405;BME280;57084;52.046;5.632;2022-09-12T04:37:00;101520;;;16.6;66.3
69405;BME280;57084;52.046;5.632;2022-09-12T04:38:00;101510;;;16.6;66.3
69405;BME280;57084;52.046;5.632;2022-09-12T04:39:00;101510;;;16.6;66.3
69405;BME280;57084;52.046;5.632;2022-09-12T04:40:00;101520;;;16.6;66.4
69405;BME280;57084;52.046;5.632;2022-09-12T04:41:00;101520;;;16.6;66.4
69405;BME280;57084;52.046;5.632;2022-09-12T04:42:00;101520;;;16.6;66.3
69405;BME280;57084;52.046;5.632;2022-09-12T04:43:00;101520;;;16.6;66.3
69405;BME280;57084;52.046;5.632;2022-09-12T04:44:01;101520;;;16.5;66.4
69405;BME280;57084;52.046;5.632;2022-09-12T04:45:00;101520;;;16.5;66.4
69405;BME280;57084;52.046;5.632;2022-09-12T04:46:03;101520;;;16.5;66.4
69405;BME280;57084;52.046;5.632;2022-09-12T04:47:00;101520;;;16.5;66.4
69405;BME280;57084;52.046;5.632;2022-09-12T04:48:00;101520;;;16.5;66.4
69405;BME280;57084;52.046;5.632;2022-09-12T04:49:00;101520;;;16.5;66.4
69405;BME280;57084;52.046;5.632;2022-09-12T04:50:00;101520;;;16.5;66.5
69405;BME280;57084;52.046;5.632;2022-09-12T04:51:07;101520;;;16.5;66.5
69405;BME280;57084;52.046;5.632;2022-09-12T04:52:00;101520;;;16.5;66.4
69405;BME280;57084;52.046;5.632;2022-09-12T04:53:00;101520;;;16.5;66.4
69405;BME280;57084;52.046;5.632;2022-09-12T04:54:00;101520;;;16.5;66.5
69405;BME280;57084;52.046;5.632;2022-09-12T04:55:00;101520;;;16.5;66.5
69405;BME280;57084;52.046;5.632;2022-09-12T04:56:00;101520;;;16.5;66.5
69405;BME280;57084;52.046;5.632;2022-09-12T04:57:00;101520;;;16.5;66.5
69405;BME280;57084;52.046;5.632;2022-09-12T04:58:00;101510;;;16.5;66.5
69405;BME280;57084;52.046;5.632;2022-09-12T04:59:00;101510;;;16.5;66.5
69405;BME280;57084;52.046;5.632;2022-09-12T05:00:00;101510;;;16.5;66.6
69405;BME280;57084;52.046;5.632;2022-09-12T05:01:03;101510;;;16.5;66.6
69405;BME280;57084;52.046;5.632;2022-09-12T05:02:00;101510;;;16.5;66.5
69405;BME280;57084;52.046;5.632;2022-09-12T05:03:00;101510;;;16.5;66.5
69405;BME280;57084;52.046;5.632;2022-09-12T05:04:00;101510;;;16.5;66.6
69405;BME280;57084;52.046;5.632;2022-09-12T05:05:00;101510;;;16.5;66.6
69405;BME280;57084;52.046;5.632;2022-09-12T05:06:00;101510;;;16.5;66.6
69405;BME280;57084;52.046;5.632;2022-09-12T05:07:00;101510;;;16.5;66.6
69405;BME280;57084;52.046;5.632;2022-09-12T05:08:00;101510;;;16.5;66.5
69405;BME280;57084;52.046;5.632;2022-09-12T05:09:00;101510;;;16.5;66.5
69405;BME280;57084;52.046;5.632;2022-09-12T05:10:00;101510;;;16.5;66.7
69405;BME280;57084;52.046;5.632;2022-09-12T05:11:00;101510;;;16.5;66.7
69405;BME280;57084;52.046;5.632;2022-09-12T05:12:00;101510;;;16.5;66.6
69405;BME280;57084;52.046;5.632;2022-09-12T05:13:00;101510;;;16.5;66.6
69405;BME280;57084;52.046;5.632;2022-09-12T05:14:00;101510;;;16.5;66.8
69405;BME280;57084;52.046;5.632;2022-09-12T05:15:00;101510;;;16.5;66.8
69405;BME280;57084;52.046;5.632;2022-09-12T05:16:01;101510;;;16.5;66.7
69405;BME280;57084;52.046;5.632;2022-09-12T05:17:00;101510;;;16.5;66.7
69405;BME280;57084;52.046;5.632;2022-09-12T05:18:00;101510;;;16.5;66.7
69405;BME280;57084;52.046;5.632;2022-09-12T05:19:00;101510;;;16.5;66.7
69405;BME280;57084;52.046;5.632;2022-09-12T05:20:00;101510;;;16.5;66.8
69405;BME280;57084;52.046;5.632;2022-09-12T05:21:00;101510;;;16.5;66.8
69405;BME280;57084;52.046;5.632;2022-09-12T05:22:00;101520;;;16.5;66.8
69405;BME280;57084;52.046;5.632;2022-09-12T05:23:00;101520;;;16.5;66.8
69405;BME280;57084;52.046;5.632;2022-09-12T05:24:00;101510;;;16.5;66.9
69405;BME280;57084;52.046;5.632;2022-09-12T05:25:00;101510;;;16.5;66.9
69405;BME280;57084;52.046;5.632;2022-09-12T05:26:00;101520;;;16.5;66.8
69405;BME280;57084;52.046;5.632;2022-09-12T05:27:00;101520;;;16.5;66.8
69405;BME280;57084;52.046;5.632;2022-09-12T05:28:00;101520;;;16.5;66.8
69405;BME280;57084;52.046;5.632;2022-09-12T05:29:00;101520;;;16.5;66.8
69405;BME280;57084;52.046;5.632;2022-09-12T05:30:00;101520;;;16.5;66.9
69405;BME280;57084;52.046;5.632;2022-09-12T05:31:00;101520;;;16.5;66.9
69405;BME280;57084;52.046;5.632;2022-09-12T05:32:00;101520;;;16.5;66.9
69405;BME280;57084;52.046;5.632;2022-09-12T05:33:00;101520;;;16.5;66.9
69405;BME280;57084;52.046;5.632;2022-09-12T05:34:00;101520;;;16.5;67.0
69405;BME280;57084;52.046;5.632;2022-09-12T05:35:00;101520;;;16.5;67.0
69405;BME280;57084;52.046;5.632;2022-09-12T05:36:00;101510;;;16.5;67.0